createdAt,value
2019-05-16T00:00:24.410Z,63.00
2019-05-16T00:02:29.185Z,62.30
2019-05-16T00:04:33.991Z,63.50
2019-05-16T00:06:39.225Z,64.30
2019-05-16T00:08:44.327Z,64.50
2019-05-16T00:10:49.658Z,66.00
2019-05-16T00:12:54.431Z,66.20
2019-05-16T00:14:59.257Z,67.50
2019-05-16T00:17:04.775Z,68.00
2019-05-16T00:19:09.517Z,69.80
2019-05-16T00:21:14.713Z,70.60
2019-05-16T00:23:19.533Z,71.60
2019-05-16T00:25:24.428Z,72.30
2019-05-16T00:27:29.339Z,73.40
2019-05-16T00:29:34.446Z,74.80
2019-05-16T00:31:39.584Z,76.10
2019-05-16T00:33:44.374Z,76.30
2019-05-16T00:36:01.070Z,77.00
2019-05-16T00:37:55.598Z,75.70
2019-05-16T00:40:00.571Z,77.00
2019-05-16T00:42:05.746Z,78.20
2019-05-16T00:44:10.593Z,78.90
2019-05-16T00:46:15.732Z,80.30
2019-05-16T00:48:20.549Z,80.60
2019-05-16T00:50:25.580Z,81.40
2019-05-16T00:52:30.539Z,83.10
2019-05-16T00:54:38.229Z,84.40
2019-05-16T00:56:43.762Z,85.70
2019-05-16T00:58:49.331Z,86.80
2019-05-16T01:00:54.164Z,88.20
2019-05-16T01:02:58.944Z,88.10
2019-05-16T01:05:04.636Z,88.50
2019-05-16T01:07:09.500Z,89.30
2019-05-16T01:09:15.146Z,90.10
2019-05-16T01:11:20.172Z,90.40
2019-05-16T01:13:25.204Z,90.30
2019-05-16T01:15:30.264Z,90.70
2019-05-16T01:17:35.708Z,90.70
2019-05-16T01:19:40.471Z,91.60
2019-05-16T01:21:45.295Z,91.50
2019-05-16T01:23:50.636Z,91.40
2019-05-16T01:25:56.131Z,91.10
2019-05-16T01:28:00.954Z,91.10
2019-05-16T01:30:09.114Z,91.20
2019-05-16T01:32:13.657Z,92.00
2019-05-16T01:34:18.591Z,91.70
2019-05-16T01:36:36.463Z,91.80
2019-05-16T01:38:30.197Z,92.00
2019-05-16T01:40:35.117Z,92.30
2019-05-16T01:42:40.254Z,92.80
2019-05-16T01:44:45.497Z,93.40
2019-05-16T01:46:50.575Z,93.50
2019-05-16T01:48:57.649Z,93.60
2019-05-16T01:51:01.826Z,94.10
2019-05-16T01:53:08.617Z,94.50
2019-05-16T01:55:13.424Z,96.00
2019-05-16T01:57:18.666Z,96.20
2019-05-16T01:59:23.442Z,96.20
2019-05-16T02:01:28.858Z,96.80
2019-05-16T02:03:34.068Z,97.00
2019-05-16T02:05:38.946Z,97.30
2019-05-16T02:07:43.722Z,97.80
2019-05-16T02:09:48.582Z,98.30
2019-05-16T02:11:53.374Z,99.00
2019-05-16T02:13:58.680Z,99.00
2019-05-16T02:16:04.298Z,99.40
2019-05-16T02:18:09.097Z,99.60
2019-05-16T02:20:14.004Z,99.80
2019-05-16T02:22:18.835Z,99.90
2019-05-16T02:24:23.664Z,99.90
2019-05-16T02:26:28.537Z,99.80
2019-05-16T02:28:39.727Z,99.90
2019-05-16T02:30:42.246Z,99.50
2019-05-16T02:32:46.273Z,99.90
2019-05-16T02:34:51.477Z,99.90
2019-05-16T02:37:14.620Z,99.90
2019-05-16T02:39:02.779Z,99.80
2019-05-16T02:41:10.523Z,99.90
2019-05-16T02:43:14.159Z,99.90
2019-05-16T02:45:23.895Z,99.20
2019-05-16T02:47:25.820Z,99.20
2019-05-16T02:49:34.140Z,99.10
2019-05-16T02:51:40.399Z,99.10
2019-05-16T02:53:44.972Z,99.10
2019-05-16T02:55:51.527Z,99.20
2019-05-16T02:58:00.401Z,99.90
2019-05-16T03:00:04.338Z,99.90
2019-05-16T03:02:11.429Z,99.90
2019-05-16T03:04:15.920Z,99.90
2019-05-16T03:06:22.095Z,99.90
2019-05-16T03:08:27.875Z,99.90
2019-05-16T03:10:33.393Z,99.90
2019-05-16T03:12:41.147Z,99.10
2019-05-16T03:14:50.411Z,99.70
2019-05-16T03:16:57.277Z,98.80
2019-05-16T03:19:04.007Z,99.20
2019-05-16T03:21:11.301Z,99.90
2019-05-16T03:23:16.481Z,99.70
2019-05-16T03:25:22.167Z,99.90
2019-05-16T03:27:30.409Z,99.90
2019-05-16T03:29:34.751Z,99.90
2019-05-16T03:31:44.488Z,99.90
2019-05-16T03:33:56.368Z,99.90
2019-05-16T03:35:55.222Z,99.90
2019-05-16T03:38:04.853Z,99.90
2019-05-16T03:40:10.863Z,99.90
2019-05-16T03:42:14.592Z,99.90
2019-05-16T03:44:21.006Z,99.90
2019-05-16T03:46:26.675Z,99.90
2019-05-16T03:48:34.823Z,99.90
2019-05-16T03:50:41.294Z,99.90
2019-05-16T03:52:50.768Z,99.90
2019-05-16T03:54:55.086Z,99.80
2019-05-16T03:57:00.590Z,97.90
2019-05-16T03:59:05.620Z,97.60
2019-05-16T04:01:11.483Z,97.80
2019-05-16T04:03:17.172Z,98.30
2019-05-16T04:05:22.580Z,98.60
2019-05-16T04:07:27.743Z,98.50
2019-05-16T04:09:32.978Z,98.00
2019-05-16T04:11:37.957Z,97.80
2019-05-16T04:13:42.785Z,97.30
2019-05-16T04:15:47.550Z,96.60
2019-05-16T04:17:52.635Z,96.30
2019-05-16T04:19:57.843Z,96.60
2019-05-16T04:22:03.529Z,96.80
2019-05-16T04:24:12.072Z,95.90
2019-05-16T04:26:15.656Z,95.60
2019-05-16T04:28:22.071Z,96.40
2019-05-16T04:30:31.361Z,95.70
2019-05-16T04:32:36.766Z,95.20
2019-05-16T04:34:42.208Z,95.10
2019-05-16T04:36:47.335Z,95.40
2019-05-16T04:38:52.679Z,95.60
2019-05-16T04:41:01.219Z,95.80
2019-05-16T04:43:05.314Z,96.10
2019-05-16T04:45:11.997Z,95.70
2019-05-16T04:47:17.401Z,95.20
2019-05-16T04:49:22.509Z,95.60
2019-05-16T04:51:30.512Z,95.10
2019-05-16T04:53:35.025Z,95.10
2019-05-16T04:55:42.034Z,95.10
2019-05-16T04:57:51.163Z,94.50
2019-05-16T04:59:56.451Z,94.70
2019-05-16T05:02:02.443Z,94.30
2019-05-16T05:04:14.023Z,93.60
2019-05-16T05:06:14.884Z,93.80
2019-05-16T05:08:21.954Z,93.30
2019-05-16T05:10:31.226Z,93.60
2019-05-16T05:12:40.534Z,93.40
2019-05-16T05:14:44.845Z,93.10
2019-05-16T05:16:53.055Z,93.00
2019-05-16T05:19:00.305Z,93.10
2019-05-16T05:21:06.971Z,92.90
2019-05-16T05:23:13.700Z,92.60
2019-05-16T05:25:20.436Z,92.40
2019-05-16T05:27:26.925Z,92.50
2019-05-16T05:29:32.228Z,92.60
2019-05-16T05:31:43.659Z,92.40
2019-05-16T05:33:44.474Z,91.70
2019-05-16T05:35:50.746Z,91.10
2019-05-16T05:38:00.299Z,89.80
2019-05-16T05:40:04.877Z,89.00
2019-05-16T05:42:11.466Z,87.60
2019-05-16T05:44:17.372Z,85.00
2019-05-16T05:46:22.683Z,83.50
2019-05-16T05:48:30.549Z,82.80
2019-05-16T05:50:35.475Z,80.40
2019-05-16T05:52:41.324Z,78.90
2019-05-16T05:54:46.640Z,78.40
2019-05-16T05:56:51.813Z,77.90
2019-05-16T05:58:58.886Z,77.50
2019-05-16T06:01:04.080Z,75.80
2019-05-16T06:03:10.695Z,73.50
2019-05-16T06:05:16.040Z,74.00
2019-05-16T06:07:21.506Z,72.30
2019-05-16T06:09:30.091Z,70.60
2019-05-16T06:11:33.771Z,69.20
2019-05-16T06:13:40.496Z,66.70
2019-05-16T06:15:45.783Z,67.50
2019-05-16T06:17:51.301Z,66.90
2019-05-16T06:19:56.802Z,66.20
2019-05-16T06:22:02.132Z,66.40
2019-05-16T06:24:07.465Z,66.40
2019-05-16T06:26:12.728Z,63.50
2019-05-16T06:28:20.921Z,62.40
2019-05-16T06:30:26.685Z,62.20
2019-05-16T06:32:31.866Z,61.80
2019-05-16T06:34:36.925Z,60.90
2019-05-16T06:36:42.262Z,60.10
2019-05-16T06:38:49.801Z,58.70
2019-05-16T06:40:54.734Z,58.70
2019-05-16T06:43:01.239Z,58.10
2019-05-16T06:45:07.114Z,58.60
2019-05-16T06:47:19.600Z,57.80
2019-05-16T06:49:19.788Z,59.00
2019-05-16T06:51:25.110Z,59.00
2019-05-16T06:53:30.500Z,56.40
2019-05-16T06:55:35.563Z,56.30
2019-05-16T06:57:42.448Z,57.10
2019-05-16T06:59:49.865Z,56.20
2019-05-16T07:01:54.423Z,55.60
2019-05-16T07:04:01.002Z,56.40
2019-05-16T07:06:06.455Z,56.20
2019-05-16T07:08:11.511Z,57.20
2019-05-16T07:10:16.894Z,56.70
2019-05-16T07:12:22.193Z,56.60
2019-05-16T07:14:28.994Z,56.80
2019-05-16T07:16:35.926Z,58.10
2019-05-16T07:18:41.204Z,57.70
2019-05-16T07:20:46.328Z,57.80
2019-05-16T07:22:53.012Z,56.80
2019-05-16T07:24:59.859Z,56.30
2019-05-16T07:27:05.218Z,57.10
2019-05-16T07:29:11.639Z,56.10
2019-05-16T07:31:18.801Z,57.50
2019-05-16T07:33:24.155Z,56.10
2019-05-16T07:35:30.766Z,57.50
2019-05-16T07:37:36.150Z,55.70
2019-05-16T07:39:42.579Z,57.30
2019-05-16T07:41:50.877Z,55.90
2019-05-16T07:43:55.981Z,55.90
2019-05-16T07:46:01.400Z,56.40
2019-05-16T07:48:06.851Z,55.90
2019-05-16T07:50:12.447Z,55.70
2019-05-16T07:52:20.973Z,55.40
2019-05-16T07:54:25.098Z,55.70
2019-05-16T07:56:30.956Z,56.30
2019-05-16T07:58:36.213Z,57.00
2019-05-16T08:00:52.586Z,57.10
2019-05-16T08:02:50.602Z,57.20
2019-05-16T08:04:55.408Z,57.80
2019-05-16T08:07:00.903Z,57.00
2019-05-16T08:09:07.921Z,57.80
2019-05-16T08:11:13.569Z,57.60
2019-05-16T08:13:21.075Z,57.90
2019-05-16T08:15:25.697Z,57.80
2019-05-16T08:17:31.544Z,57.70
2019-05-16T08:19:36.989Z,58.00
2019-05-16T08:21:42.154Z,59.40
2019-05-16T08:23:50.204Z,57.80
2019-05-16T08:25:54.202Z,59.60
2019-05-16T08:28:01.191Z,59.00
2019-05-16T08:30:06.541Z,59.20
2019-05-16T08:32:11.890Z,58.70
2019-05-16T08:34:20.621Z,58.90
2019-05-16T08:36:27.167Z,58.80
2019-05-16T08:38:34.097Z,59.20
2019-05-16T08:41:01.207Z,59.10
2019-05-16T08:42:46.039Z,59.60
2019-05-16T08:44:51.763Z,59.80
2019-05-16T08:46:58.284Z,58.90
2019-05-16T08:49:03.971Z,59.70
2019-05-16T08:51:12.215Z,59.20
2019-05-16T08:53:16.282Z,59.70
2019-05-16T08:55:21.953Z,59.60
2019-05-16T08:57:28.952Z,60.40
2019-05-16T08:59:34.175Z,59.40
2019-05-16T09:01:50.757Z,59.20
2019-05-16T09:03:47.625Z,59.10
2019-05-16T09:05:54.373Z,58.80
2019-05-16T09:08:00.993Z,59.60
2019-05-16T09:10:35.699Z,59.40
2019-05-16T09:12:13.836Z,59.50
2019-05-16T09:14:19.030Z,59.30
2019-05-16T09:16:24.175Z,59.10
2019-05-16T09:18:29.678Z,60.80
2019-05-16T09:20:37.466Z,60.10
2019-05-16T09:22:42.111Z,60.10
2019-05-16T09:24:48.182Z,61.00
2019-05-16T09:26:54.066Z,62.40
2019-05-16T09:29:00.564Z,62.10
2019-05-16T09:31:07.301Z,61.50
2019-05-16T09:33:12.506Z,61.30
2019-05-16T09:35:17.924Z,62.00
2019-05-16T09:37:23.073Z,60.70
2019-05-16T09:39:28.263Z,61.80
2019-05-16T09:41:49.789Z,62.00
2019-05-16T09:43:43.035Z,61.50
2019-05-16T09:45:48.490Z,63.00
2019-05-16T09:47:53.703Z,62.10
2019-05-16T09:49:59.038Z,61.90
2019-05-16T09:52:07.484Z,63.10
2019-05-16T09:54:12.537Z,62.70
2019-05-16T09:56:17.901Z,63.10
2019-05-16T09:58:23.185Z,62.30
2019-05-16T10:00:30.560Z,61.80
2019-05-16T10:02:36.711Z,62.00
2019-05-16T10:04:41.951Z,60.90
2019-05-16T10:06:47.097Z,61.10
2019-05-16T10:08:52.186Z,61.70
2019-05-16T10:10:57.373Z,61.70
2019-05-16T10:13:03.005Z,62.80
2019-05-16T10:15:09.082Z,61.90
2019-05-16T10:17:14.566Z,63.70
2019-05-16T10:19:20.116Z,62.00
2019-05-16T10:21:27.125Z,62.90
2019-05-16T10:23:36.431Z,62.60
2019-05-16T10:25:42.781Z,63.30
2019-05-16T10:27:49.394Z,62.50
2019-05-16T10:30:00.571Z,61.40
2019-05-16T10:32:03.827Z,60.80
2019-05-16T10:34:11.010Z,61.60
2019-05-16T10:36:21.441Z,62.70
2019-05-16T10:38:28.384Z,63.10
2019-05-16T10:40:36.652Z,62.80
2019-05-16T10:42:42.189Z,61.70
2019-05-16T10:44:48.686Z,62.50
2019-05-16T10:46:55.228Z,62.90
2019-05-16T10:49:02.008Z,61.10
2019-05-16T10:51:08.626Z,62.20
2019-05-16T10:53:33.591Z,64.20
2019-05-16T10:55:23.195Z,63.40
2019-05-16T10:57:31.722Z,62.80
2019-05-16T10:59:57.751Z,60.80
2019-05-16T11:01:47.219Z,62.10
2019-05-16T11:03:56.818Z,61.60
2019-05-16T11:06:06.719Z,60.20
2019-05-16T11:08:12.425Z,62.00
2019-05-16T11:10:20.672Z,64.00
2019-05-16T11:12:45.195Z,60.30
2019-05-16T11:14:37.009Z,61.70
2019-05-16T11:16:42.895Z,61.10
2019-05-16T11:18:49.428Z,61.40
2019-05-16T11:20:58.113Z,60.40
2019-05-16T11:23:04.197Z,61.90
2019-05-16T11:25:21.145Z,62.00
2019-05-16T11:27:19.601Z,61.00
2019-05-16T11:29:26.532Z,61.30
2019-05-16T11:31:33.390Z,61.30
2019-05-16T11:33:39.760Z,61.60
2019-05-16T11:35:47.703Z,60.70
2019-05-16T11:37:56.996Z,61.90
2019-05-16T11:40:03.157Z,61.10
2019-05-16T11:42:09.396Z,60.70
2019-05-16T11:44:17.568Z,61.50
2019-05-16T11:46:27.892Z,60.90
2019-05-16T11:48:33.218Z,61.30
2019-05-16T11:50:39.392Z,62.00
2019-05-16T11:52:47.654Z,63.30
2019-05-16T11:54:57.057Z,62.40
2019-05-16T11:57:02.376Z,62.90
2019-05-16T11:59:08.625Z,63.40
2019-05-16T12:01:16.495Z,63.10
2019-05-16T12:03:22.608Z,66.00
2019-05-16T12:05:28.772Z,65.20
2019-05-16T12:07:42.397Z,63.50
2019-05-16T12:09:47.956Z,64.20
2019-05-16T12:11:59.669Z,64.80
2019-05-16T12:13:58.737Z,63.90
2019-05-16T12:16:07.450Z,65.60
2019-05-16T12:18:12.784Z,66.20
2019-05-16T12:20:18.535Z,63.50
2019-05-16T12:22:23.848Z,64.20
2019-05-16T12:24:36.851Z,63.30
2019-05-16T12:26:37.266Z,66.10
2019-05-16T12:28:44.236Z,66.00
2019-05-16T12:30:50.073Z,65.70
2019-05-16T12:32:58.101Z,64.10
2019-05-16T12:35:06.502Z,65.30
2019-05-16T12:37:16.397Z,66.80
2019-05-16T12:39:21.286Z,67.00
2019-05-16T12:41:28.725Z,64.60
2019-05-16T12:43:45.903Z,65.50
2019-05-16T12:45:39.445Z,65.00
2019-05-16T12:47:46.848Z,66.20
2019-05-16T12:49:51.007Z,66.30
2019-05-16T12:51:57.008Z,66.70
2019-05-16T12:54:01.909Z,65.50
2019-05-16T12:56:07.210Z,66.50
2019-05-16T12:58:13.247Z,66.30
2019-05-16T13:00:19.276Z,67.20
2019-05-16T13:02:27.130Z,66.50
2019-05-16T13:04:30.768Z,68.20
2019-05-16T13:06:37.131Z,67.00
2019-05-16T13:08:42.815Z,67.20
2019-05-16T13:10:48.659Z,67.00
2019-05-16T13:12:53.630Z,66.70
2019-05-16T13:14:58.406Z,67.50
2019-05-16T13:17:03.234Z,67.00
2019-05-16T13:19:10.527Z,68.70
2019-05-16T13:21:18.429Z,69.00
2019-05-16T13:23:23.741Z,68.10
2019-05-16T13:25:28.624Z,67.70
2019-05-16T13:27:37.002Z,67.70
2019-05-16T13:29:40.621Z,68.70
2019-05-16T13:31:47.842Z,67.70
2019-05-16T13:33:56.818Z,67.30
2019-05-16T13:36:02.858Z,67.80
2019-05-16T13:38:08.099Z,68.40
2019-05-16T13:40:13.936Z,68.30
2019-05-16T13:42:19.048Z,69.20
2019-05-16T13:44:27.263Z,67.90
2019-05-16T13:46:30.927Z,68.10
2019-05-16T13:48:37.644Z,69.30
2019-05-16T13:50:42.630Z,69.10
2019-05-16T13:52:48.240Z,68.30
2019-05-16T13:54:56.322Z,68.50
2019-05-16T13:57:01.146Z,69.10
2019-05-16T13:59:07.749Z,69.90
2019-05-16T14:01:13.505Z,69.60
2019-05-16T14:03:32.971Z,69.20
2019-05-16T14:05:38.605Z,68.90
2019-05-16T14:07:47.769Z,69.10
2019-05-16T14:09:52.162Z,69.90
2019-05-16T14:11:57.762Z,69.40
2019-05-16T14:14:04.946Z,69.30
2019-05-16T14:16:11.947Z,69.20
2019-05-16T14:18:18.914Z,70.00
2019-05-16T14:20:26.766Z,70.90
2019-05-16T14:22:34.439Z,70.30
2019-05-16T14:24:43.291Z,69.90
2019-05-16T14:26:49.278Z,71.30
2019-05-16T14:28:57.622Z,71.20
2019-05-16T14:31:06.997Z,70.40
2019-05-16T14:33:13.900Z,70.30
2019-05-16T14:35:19.789Z,71.30
2019-05-16T14:37:27.163Z,70.90
2019-05-16T14:39:33.918Z,69.60
2019-05-16T14:41:40.259Z,69.80
2019-05-16T14:43:47.363Z,70.20
2019-05-16T14:45:53.702Z,71.00
2019-05-16T14:48:00.549Z,71.30
2019-05-16T14:50:13.210Z,71.80
2019-05-16T14:52:39.357Z,71.70
2019-05-16T14:55:02.576Z,71.60
2019-05-16T14:57:08.433Z,71.90
2019-05-16T14:59:15.962Z,71.60
2019-05-16T15:01:22.725Z,72.20
2019-05-16T15:03:32.163Z,72.60
2019-05-16T15:05:42.694Z,71.90
2019-05-16T15:07:48.085Z,71.50
2019-05-16T15:09:52.709Z,71.80
2019-05-16T15:11:58.350Z,71.80
2019-05-16T15:14:03.619Z,71.80
2019-05-16T15:16:10.048Z,71.70
2019-05-16T15:18:17.747Z,72.50
2019-05-16T15:20:22.639Z,71.00
2019-05-16T15:22:27.824Z,71.50
2019-05-16T15:24:33.418Z,71.60
2019-05-16T15:26:38.998Z,73.40
2019-05-16T15:28:48.010Z,72.50
2019-05-16T15:30:52.738Z,71.20
2019-05-16T15:32:58.024Z,71.10
2019-05-16T15:35:03.251Z,70.30
2019-05-16T15:37:08.700Z,70.50
2019-05-16T15:39:16.762Z,70.50
2019-05-16T15:41:21.610Z,70.30
2019-05-16T15:43:27.481Z,70.00
2019-05-16T15:45:42.681Z,70.50
2019-05-16T15:47:44.534Z,71.70
2019-05-16T15:49:50.035Z,70.70
2019-05-16T15:51:56.657Z,70.80
2019-05-16T15:54:03.694Z,70.70
2019-05-16T15:56:10.466Z,70.70
2019-05-16T15:58:18.089Z,70.90
2019-05-16T16:00:59.679Z,70.00
2019-05-16T16:03:07.011Z,70.60
2019-05-16T16:05:12.131Z,70.70
2019-05-16T16:07:18.038Z,70.10
2019-05-16T16:09:23.650Z,70.00
2019-05-16T16:11:29.035Z,70.40
2019-05-16T16:13:34.489Z,70.60
2019-05-16T16:15:50.641Z,70.30
2019-05-16T16:17:49.584Z,70.90
2019-05-16T16:19:57.775Z,70.40
2019-05-16T16:22:02.317Z,71.00
2019-05-16T16:24:09.198Z,71.20
2019-05-16T16:26:17.501Z,71.00
2019-05-16T16:28:21.500Z,71.50
2019-05-16T16:30:27.823Z,70.20
2019-05-16T16:32:33.218Z,70.50
2019-05-16T16:34:38.823Z,70.60
2019-05-16T16:36:43.975Z,70.20
2019-05-16T16:38:49.310Z,71.10
2019-05-16T16:40:57.155Z,71.40
2019-05-16T16:43:01.908Z,71.70
2019-05-16T16:45:07.418Z,71.20
2019-05-16T16:47:13.301Z,71.00
2019-05-16T16:49:18.836Z,69.90
2019-05-16T16:51:26.727Z,69.90
2019-05-16T16:53:31.055Z,69.80
2019-05-16T16:55:37.062Z,70.50
2019-05-16T16:57:42.328Z,70.10
2019-05-16T16:59:47.795Z,70.50
2019-05-16T17:01:52.890Z,71.00
2019-05-16T17:03:58.076Z,71.40
2019-05-16T17:06:09.463Z,71.20
2019-05-16T17:08:16.854Z,70.90
2019-05-16T17:10:21.878Z,71.00
2019-05-16T17:12:27.176Z,71.10
2019-05-16T17:14:32.592Z,71.70
2019-05-16T17:16:39.205Z,70.60
2019-05-16T17:18:44.583Z,70.80
2019-05-16T17:20:49.822Z,71.40
2019-05-16T17:22:57.170Z,70.70
2019-05-16T17:25:02.159Z,70.80
2019-05-16T17:27:07.823Z,71.20
2019-05-16T17:29:13.193Z,70.80
2019-05-16T17:31:18.323Z,70.80
2019-05-16T17:33:24.509Z,71.00
2019-05-16T17:35:29.960Z,71.10
2019-05-16T17:37:37.423Z,71.00
2019-05-16T17:39:42.111Z,71.40
2019-05-16T17:41:54.101Z,71.70
2019-05-16T17:43:56.292Z,71.70
2019-05-16T17:46:01.467Z,72.50
2019-05-16T17:48:07.696Z,72.90
2019-05-16T17:50:16.960Z,73.20
2019-05-16T17:52:21.957Z,73.50
2019-05-16T17:54:27.356Z,73.10
2019-05-16T17:56:33.156Z,73.20
2019-05-16T17:58:39.168Z,73.30
2019-05-16T18:00:46.855Z,72.80
2019-05-16T18:02:53.727Z,72.70
2019-05-16T18:04:58.894Z,72.30
2019-05-16T18:07:04.246Z,73.30
2019-05-16T18:09:09.794Z,72.40
2019-05-16T18:11:17.604Z,72.50
2019-05-16T18:13:22.308Z,73.00
2019-05-16T18:15:27.647Z,72.80
2019-05-16T18:17:32.790Z,73.50
2019-05-16T18:19:38.531Z,74.10
2019-05-16T18:21:43.737Z,74.00
2019-05-16T18:23:49.795Z,73.70
2019-05-16T18:25:57.417Z,74.10
2019-05-16T18:28:02.432Z,74.10
2019-05-16T18:30:08.132Z,74.30
2019-05-16T18:32:13.152Z,74.80
2019-05-16T18:34:18.325Z,74.60
2019-05-16T18:36:23.500Z,74.00
2019-05-16T18:38:28.752Z,74.20
2019-05-16T18:40:36.474Z,74.10
2019-05-16T18:42:41.394Z,74.40
2019-05-16T18:44:47.319Z,74.30
2019-05-16T18:47:04.015Z,74.70
2019-05-16T18:49:00.586Z,74.10
2019-05-16T18:51:06.730Z,74.00
2019-05-16T18:53:12.148Z,74.70
2019-05-16T18:55:17.324Z,75.10
2019-05-16T18:57:22.741Z,75.30
2019-05-16T18:59:29.736Z,75.50
2019-05-16T19:01:37.377Z,75.60
2019-05-16T19:03:41.685Z,76.30
2019-05-16T19:05:46.771Z,76.60
2019-05-16T19:07:52.574Z,76.50
2019-05-16T19:09:57.832Z,76.60
2019-05-16T19:12:03.218Z,76.40
2019-05-16T19:14:08.640Z,77.40
2019-05-16T19:16:14.026Z,77.60
2019-05-16T19:18:19.308Z,77.50
2019-05-16T19:20:26.354Z,78.20
2019-05-16T19:22:31.705Z,79.50
2019-05-16T19:24:36.911Z,79.30
2019-05-16T19:26:41.934Z,80.20
2019-05-16T19:28:47.705Z,80.80
2019-05-16T19:30:53.059Z,81.30
2019-05-16T19:32:58.762Z,82.10
2019-05-16T19:35:04.343Z,83.10
2019-05-16T19:37:09.485Z,83.70
2019-05-16T19:39:14.640Z,85.90
2019-05-16T19:41:19.652Z,89.80
2019-05-16T19:43:26.484Z,91.60
2019-05-16T19:45:32.023Z,93.40
2019-05-16T19:47:40.974Z,94.80
2019-05-16T19:49:46.320Z,96.10
2019-05-16T19:51:52.221Z,96.50
2019-05-16T19:53:57.798Z,97.20
2019-05-16T19:56:03.413Z,97.60
2019-05-16T19:58:08.652Z,97.70
2019-05-16T20:00:16.993Z,97.70
2019-05-16T20:02:21.336Z,98.80
2019-05-16T20:04:27.358Z,99.40
2019-05-16T20:06:32.596Z,99.90
2019-05-16T20:08:37.806Z,99.90
2019-05-16T20:10:43.272Z,99.90
2019-05-16T20:12:48.672Z,99.90
2019-05-16T20:15:05.234Z,99.90
2019-05-16T20:17:00.629Z,99.90
2019-05-16T20:19:06.989Z,99.90
2019-05-16T20:21:20.693Z,99.90
2019-05-16T20:23:31.161Z,99.90
2019-05-16T20:25:36.830Z,99.90
2019-05-16T20:27:47.168Z,99.90
2019-05-16T20:29:56.415Z,99.90
2019-05-16T20:32:02.677Z,99.90
2019-05-16T20:34:09.454Z,99.90
2019-05-16T20:36:17.153Z,99.90
2019-05-16T20:38:21.930Z,99.90
2019-05-16T20:40:27.050Z,99.90
2019-05-16T20:42:32.288Z,99.90
2019-05-16T20:44:37.435Z,99.90
2019-05-16T20:46:42.633Z,99.90
2019-05-16T20:48:47.662Z,99.90
2019-05-16T20:50:53.169Z,99.90
2019-05-16T20:52:58.224Z,99.90
2019-05-16T20:55:06.965Z,99.90
2019-05-16T20:57:11.490Z,99.90
2019-05-16T20:59:17.219Z,99.90
2019-05-16T21:01:23.048Z,99.90
2019-05-16T21:03:28.255Z,99.90
2019-05-16T21:05:33.363Z,99.90
2019-05-16T21:07:38.875Z,99.90
2019-05-16T21:09:43.961Z,99.90
2019-05-16T21:11:50.005Z,99.90
2019-05-16T21:13:56.593Z,99.90
2019-05-16T21:16:02.028Z,99.90
2019-05-16T21:18:07.686Z,99.90
2019-05-16T21:20:13.120Z,99.90
2019-05-16T21:22:19.355Z,99.90
2019-05-16T21:24:26.716Z,99.90
2019-05-16T21:26:31.735Z,99.90
2019-05-16T21:28:37.226Z,99.90
2019-05-16T21:30:42.447Z,99.90
2019-05-16T21:32:47.581Z,99.90
2019-05-16T21:34:52.746Z,99.90
2019-05-16T21:37:11.021Z,99.90
2019-05-16T21:39:08.486Z,99.90
2019-05-16T21:41:16.669Z,99.90
2019-05-16T21:43:21.452Z,99.90
2019-05-16T21:45:28.718Z,99.90
2019-05-16T21:47:33.446Z,99.90
2019-05-16T21:49:38.581Z,99.90
2019-05-16T21:51:43.780Z,99.90
2019-05-16T21:53:48.965Z,99.90
2019-05-16T21:55:56.252Z,99.90
2019-05-16T21:58:00.957Z,99.90
2019-05-16T22:00:11.095Z,99.90
2019-05-16T22:02:16.863Z,99.90
2019-05-16T22:04:22.624Z,99.90
2019-05-16T22:06:28.120Z,99.90
2019-05-16T22:08:33.646Z,99.90
2019-05-16T22:10:39.185Z,99.90
2019-05-16T22:12:44.721Z,99.90
2019-05-16T22:14:54.108Z,99.90
2019-05-16T22:17:00.666Z,99.90
2019-05-16T22:19:07.117Z,99.90
2019-05-16T22:21:12.354Z,99.90
2019-05-16T22:23:17.879Z,99.90
2019-05-16T22:25:23.387Z,99.90
2019-05-16T22:27:28.477Z,99.90
2019-05-16T22:29:33.721Z,99.90
2019-05-16T22:31:39.175Z,99.90
2019-05-16T22:33:46.764Z,99.90
2019-05-16T22:35:51.589Z,99.90
2019-05-16T22:37:59.409Z,99.90
2019-05-16T22:40:03.867Z,99.90
2019-05-16T22:42:09.412Z,99.90
2019-05-16T22:44:17.412Z,99.90
2019-05-16T22:46:21.671Z,99.90
2019-05-16T22:48:26.882Z,99.90
2019-05-16T22:50:32.330Z,99.90
2019-05-16T22:52:37.719Z,99.90
2019-05-16T22:54:42.708Z,99.90
2019-05-16T22:56:47.816Z,99.90
2019-05-16T22:58:53.292Z,99.90
2019-05-16T23:00:58.988Z,99.90
2019-05-16T23:03:04.072Z,99.90
2019-05-16T23:05:09.407Z,99.90
2019-05-16T23:07:16.464Z,99.90
2019-05-16T23:09:22.102Z,99.90
2019-05-16T23:11:27.274Z,99.90
2019-05-16T23:13:32.479Z,99.90
2019-05-16T23:15:37.751Z,99.90
2019-05-16T23:17:42.839Z,99.90
2019-05-16T23:19:48.181Z,99.90
2019-05-16T23:21:53.463Z,99.90
2019-05-16T23:23:58.650Z,99.90
2019-05-16T23:26:06.195Z,99.90
2019-05-16T23:28:12.028Z,99.90
2019-05-16T23:30:17.683Z,99.90
2019-05-16T23:32:22.805Z,99.90
2019-05-16T23:34:28.243Z,99.90
2019-05-16T23:36:33.802Z,99.90
2019-05-16T23:38:39.045Z,99.90
2019-05-16T23:40:46.677Z,99.90
2019-05-16T23:42:51.568Z,99.90
2019-05-16T23:44:56.828Z,99.90
2019-05-16T23:47:02.788Z,99.90
2019-05-16T23:49:08.333Z,99.90
2019-05-16T23:51:13.673Z,99.90
2019-05-16T23:53:18.908Z,99.90
2019-05-16T23:55:23.982Z,99.90
2019-05-16T23:57:29.084Z,99.90
2019-05-16T23:59:36.707Z,99.90
